Time;durP1;ratioP1;P1;durP2;ratioP2;P2;SDS_P1;SDS_P2;PMS_P1;PMS_P2;Temp;Humidity;BMP_temperature;BMP_pressure;BME280_temperature;BME280_humidity;BME280_pressure;Samples;Min_cycle;Max_cycle;Signal;HPM_P1;HPM_P2
2021/03/29 00:00:15;;;;;;;40.20;19.35;;;;;;;6.76;59.50;101450.75;1724558;81;26745;-70
2021/03/29 00:02:41;;;;;;;41.15;18.30;;;;;;;6.72;59.83;101455.81;1714759;81;21200;-70
2021/03/29 00:05:09;;;;;;;39.23;19.02;;;;;;;6.81;59.77;101455.70;1701628;81;27547;-69
2021/03/29 00:07:34;;;;;;;40.33;18.98;;;;;;;6.88;59.48;101453.52;1720053;81;21531;-71
2021/03/29 00:10:06;;;;;;;35.52;18.42;;;;;;;6.92;59.65;101451.06;1717842;81;28393;-71
2021/03/29 00:12:38;;;;;;;40.15;18.77;;;;;;;7.01;59.28;101445.21;1724483;81;21718;-71
2021/03/29 00:15:05;;;;;;;41.80;17.82;;;;;;;7.02;59.08;101448.19;1727130;81;21208;-71
2021/03/29 00:17:32;;;;;;;40.10;17.77;;;;;;;7.17;58.92;101444.55;1693589;81;21657;-71
2021/03/29 00:19:57;;;;;;;45.12;18.20;;;;;;;7.23;58.63;101447.73;1729659;81;21199;-72
2021/03/29 00:22:23;;;;;;;34.85;16.42;;;;;;;7.29;58.28;101443.38;1694888;81;29250;-72
2021/03/29 00:24:49;;;;;;;38.48;17.75;;;;;;;7.35;58.26;101446.43;1694263;81;26674;-72
2021/03/29 00:27:15;;;;;;;39.05;16.50;;;;;;;7.37;58.02;101447.64;1701517;81;22670;-70
2021/03/29 00:29:41;;;;;;;35.15;16.32;;;;;;;7.35;57.86;101445.12;1717600;81;26986;-72
2021/03/29 00:32:07;;;;;;;39.70;17.52;;;;;;;7.36;57.85;101445.50;1721317;81;25311;-72
2021/03/29 00:34:33;;;;;;;36.48;16.65;;;;;;;7.22;58.16;101448.66;1730455;81;21207;-71
2021/03/29 00:36:59;;;;;;;33.13;16.35;;;;;;;7.31;58.26;101449.37;1721079;81;26782;-72
2021/03/29 00:39:25;;;;;;;34.08;17.27;;;;;;;7.34;57.91;101442.59;1717449;81;21861;-71
2021/03/29 00:41:50;;;;;;;35.40;16.63;;;;;;;7.23;58.12;101439.37;1725110;81;25482;-71
2021/03/29 00:44:16;;;;;;;34.05;16.30;;;;;;;7.28;57.95;101437.75;1724400;81;23716;-72
2021/03/29 00:46:42;;;;;;;35.13;16.62;;;;;;;7.21;58.21;101436.46;1720100;81;21220;-71
2021/03/29 00:49:08;;;;;;;35.52;16.27;;;;;;;7.22;58.13;101433.73;1683067;81;26744;-71
2021/03/29 00:51:35;;;;;;;34.58;15.93;;;;;;;7.34;57.91;101432.08;1723143;81;21590;-72
2021/03/29 00:54:03;;;;;;;35.20;16.20;;;;;;;7.40;57.63;101436.92;1726371;81;25426;-73
2021/03/29 00:56:29;;;;;;;;;;;;;;;7.37;57.67;101429.25;1718824;81;21330;-72
2021/03/29 00:58:55;;;;;;;30.02;14.93;;;;;;;7.40;57.60;101431.67;1722456;81;28877;-70
2021/03/29 01:01:25;;;;;;;32.95;15.15;;;;;;;7.35;57.42;101432.46;1709600;81;27328;-72
2021/03/29 01:03:57;;;;;;;32.48;15.53;;;;;;;7.32;57.50;101426.09;1708768;81;21982;-73
2021/03/29 01:06:25;;;;;;;38.80;16.10;;;;;;;7.36;57.53;101431.50;1690041;81;21302;-73
2021/03/29 01:08:53;;;;;;;34.45;15.58;;;;;;;7.25;57.70;101430.07;1697959;81;22372;-74
2021/03/29 01:11:26;;;;;;;33.53;16.50;;;;;;;7.10;58.11;101428.84;1723133;81;21207;-73
2021/03/29 01:14:03;;;;;;;34.83;16.62;;;;;;;7.09;58.25;101433.72;1715940;81;21280;-73
2021/03/29 01:16:35;;;;;;;40.98;16.42;;;;;;;7.15;57.95;101435.94;1718274;81;21618;-73
2021/03/29 01:19:01;;;;;;;40.25;16.30;;;;;;;6.98;58.26;101436.22;1734316;81;21775;-72
2021/03/29 01:21:48;;;;;;;32.65;14.73;;;;;;;6.97;58.51;101438.47;1690996;81;21193;-72
2021/03/29 01:24:27;;;;;;;32.80;15.65;;;;;;;6.86;58.48;101444.90;1721469;81;21746;-71
2021/03/29 01:26:53;;;;;;;34.88;15.75;;;;;;;6.88;58.48;101449.57;1714737;81;21211;-71
2021/03/29 01:29:19;;;;;;;34.03;16.65;;;;;;;6.91;58.67;101441.49;1744028;81;21799;-71
2021/03/29 01:31:45;;;;;;;33.70;15.00;;;;;;;7.02;58.47;101445.56;1697365;81;21241;-72
2021/03/29 01:34:13;;;;;;;36.27;15.03;;;;;;;7.18;58.10;101449.35;1724020;81;25711;-71
2021/03/29 01:36:40;;;;;;;37.80;15.23;;;;;;;6.91;58.51;101442.33;1735938;81;21192;-72
2021/03/29 01:39:07;;;;;;;37.33;16.42;;;;;;;6.63;59.29;101447.22;1722059;81;21235;-72
2021/03/29 01:41:33;;;;;;;36.70;15.38;;;;;;;6.70;59.45;101444.58;1718630;81;21594;-72
2021/03/29 01:43:59;;;;;;;34.73;16.37;;;;;;;6.85;59.14;101441.41;1650195;83;26504;-72
2021/03/29 01:46:24;;;;;;;33.33;15.63;;;;;;;7.01;58.90;101442.59;1657798;84;21211;-72
2021/03/29 01:48:50;;;;;;;32.48;15.03;;;;;;;7.13;58.87;101450.97;1688946;82;28314;-72
2021/03/29 01:51:16;;;;;;;30.65;14.87;;;;;;;7.08;58.71;101447.78;1657305;84;26812;-72
2021/03/29 01:53:43;;;;;;;36.03;15.40;;;;;;;7.24;58.52;101444.14;1635119;85;23404;-71
2021/03/29 01:56:09;;;;;;;33.02;15.20;;;;;;;7.21;58.54;101439.09;1670830;84;21295;-71
2021/03/29 01:58:34;;;;;;;32.17;14.73;;;;;;;7.31;58.59;101444.11;1656361;84;23786;-71
2021/03/29 02:01:04;;;;;;;36.98;15.72;;;;;;;7.43;58.30;101444.60;1672169;84;28359;-71
2021/03/29 02:03:30;;;;;;;29.42;14.28;;;;;;;7.57;58.01;101440.17;1662351;84;21279;-71
2021/03/29 02:05:56;;;;;;;34.95;15.08;;;;;;;7.53;57.84;101443.02;1674337;84;21926;-71
2021/03/29 02:08:22;;;;;;;31.60;14.63;;;;;;;7.63;57.71;101437.13;1680095;84;27558;-70
2021/03/29 02:10:48;;;;;;;37.90;15.18;;;;;;;7.71;57.63;101442.72;1672950;84;21144;-71
2021/03/29 02:13:17;;;;;;;31.12;14.35;;;;;;;7.72;57.39;101441.75;1662274;84;21281;-71
2021/03/29 02:15:43;;;;;;;30.17;14.25;;;;;;;7.62;57.32;101440.72;1663861;84;21275;-70
2021/03/29 02:18:21;;;;;;;31.23;15.23;;;;;;;7.64;57.52;101437.02;1664397;84;21199;-71
2021/03/29 02:20:47;;;;;;;35.83;15.23;;;;;;;7.72;57.37;101439.98;1671288;84;21216;-70
2021/03/29 02:23:15;;;;;;;34.40;14.80;;;;;;;7.79;57.18;101435.14;1658906;84;23662;-70
2021/03/29 02:25:40;;;;;;;;;;;;;;;7.81;57.07;101446.38;1681554;84;21267;-71
2021/03/29 02:28:06;;;;;;;28.42;13.25;;;;;;;7.71;57.13;101444.87;1667635;84;20248;-70
2021/03/29 02:30:36;;;;;;;32.70;14.73;;;;;;;7.76;57.22;101443.23;1685579;83;21271;-73
2021/03/29 02:33:04;;;;;;;32.28;15.43;;;;;;;7.82;57.16;101438.87;1676272;83;21171;-71
2021/03/29 02:35:30;;;;;;;29.72;14.78;;;;;;;7.85;57.20;101442.60;1677554;83;21268;-72
2021/03/29 02:37:57;;;;;;;29.65;14.78;;;;;;;7.81;57.22;101443.75;1662893;83;28337;-72
2021/03/29 02:40:25;;;;;;;31.52;15.05;;;;;;;7.90;57.11;101432.59;1676929;84;21235;-71
2021/03/29 02:42:54;;;;;;;36.20;15.15;;;;;;;7.88;57.07;101429.23;1675008;81;22009;-72
2021/03/29 02:45:20;;;;;;;30.43;14.78;;;;;;;7.87;57.24;101430.66;1660078;85;21248;-72
2021/03/29 02:47:46;;;;;;;34.20;16.15;;;;;;;7.88;57.26;101427.92;1645739;85;21193;-69
2021/03/29 02:50:19;;;;;;;32.30;15.10;;;;;;;7.85;57.34;101439.97;1658050;85;28312;-69
2021/03/29 02:52:48;;;;;;;36.25;15.43;;;;;;;7.73;57.37;101436.39;1647236;85;21245;-71
2021/03/29 02:55:14;;;;;;;35.45;16.23;;;;;;;7.70;57.71;101435.77;1682704;83;21335;-70
2021/03/29 02:57:44;;;;;;;30.88;15.25;;;;;;;7.72;57.69;101431.23;1672315;85;26869;-70
2021/03/29 03:00:14;;;;;;;32.63;15.35;;;;;;;7.76;57.62;101431.89;1656905;84;21731;-71
2021/03/29 03:02:42;;;;;;;32.65;15.63;;;;;;;7.62;57.82;101427.58;1671854;85;21264;-70
2021/03/29 03:05:09;;;;;;;32.88;15.05;;;;;;;7.64;57.92;101428.30;1671086;85;21229;-71
2021/03/29 03:07:35;;;;;;;32.95;15.75;;;;;;;7.64;57.91;101428.30;1641809;85;21203;-72
2021/03/29 03:10:03;;;;;;;34.08;15.13;;;;;;;7.58;58.04;101431.35;1646507;85;27135;-71
2021/03/29 03:12:28;;;;;;;33.35;15.65;;;;;;;7.47;58.19;101426.37;1651780;85;21235;-71
2021/03/29 03:14:54;;;;;;;34.67;15.38;;;;;;;7.40;58.61;101436.92;1650923;85;28513;-71
2021/03/29 03:17:20;;;;;;;34.23;15.15;;;;;;;7.45;58.63;101438.75;1640276;85;27211;-71
2021/03/29 03:19:46;;;;;;;30.52;14.98;;;;;;;7.53;58.45;101429.03;1649879;85;21869;-71
2021/03/29 03:22:13;;;;;;;34.45;15.55;;;;;;;7.37;58.53;101434.50;1645416;85;26844;-71
2021/03/29 03:24:39;;;;;;;34.33;14.25;;;;;;;7.41;58.51;101433.36;1635883;85;28816;-71
2021/03/29 03:27:07;;;;;;;35.60;15.80;;;;;;;7.35;58.54;101427.20;1666274;85;21152;-71
2021/03/29 03:29:41;;;;;;;33.28;15.08;;;;;;;7.45;58.39;101426.10;1671333;85;21586;-72
2021/03/29 03:32:14;;;;;;;37.28;15.65;;;;;;;7.47;58.30;101422.44;1670879;85;22007;-71
2021/03/29 03:34:40;;;;;;;34.75;16.10;;;;;;;7.45;58.33;101413.79;1671776;85;21756;-70
2021/03/29 03:37:07;;;;;;;35.90;16.10;;;;;;;7.42;58.38;101425.83;1646003;85;24761;-70
2021/03/29 03:39:33;;;;;;;28.98;14.55;;;;;;;7.31;58.60;101411.27;1660533;85;21228;-70
2021/03/29 03:41:59;;;;;;;34.63;15.25;;;;;;;7.31;58.60;101411.27;1645200;85;21523;-71
2021/03/29 03:44:25;;;;;;;33.15;15.03;;;;;;;7.49;58.39;101436.30;1685508;83;21921;-71
2021/03/29 03:46:51;;;;;;;30.60;14.07;;;;;;;7.58;58.26;101430.04;1703499;82;27551;-72
2021/03/29 03:49:20;;;;;;;30.23;14.50;;;;;;;7.44;58.39;101435.78;1698958;83;23715;-71
2021/03/29 03:51:47;;;;;;;34.45;16.17;;;;;;;7.28;58.88;101424.61;1700045;83;21260;-71
2021/03/29 03:54:13;;;;;;;36.55;15.78;;;;;;;7.31;58.96;101428.34;1690104;83;21191;-72
2021/03/29 03:56:39;;;;;;;35.28;15.80;;;;;;;7.36;58.83;101427.55;1699407;83;21305;-71
2021/03/29 03:59:05;;;;;;;34.27;14.90;;;;;;;7.31;59.07;101432.28;1698540;83;21724;-71
2021/03/29 04:01:36;;;;;;;35.83;15.50;;;;;;;7.10;59.48;101431.47;1706648;83;21200;-71
2021/03/29 04:04:02;;;;;;;35.10;15.08;;;;;;;7.14;59.82;101434.25;1718691;83;21250;-71
2021/03/29 04:06:27;;;;;;;27.90;13.95;;;;;;;7.12;59.89;101437.45;1699794;83;21192;-71
2021/03/29 04:08:53;;;;;;;34.23;15.35;;;;;;;7.29;59.43;101436.81;1718857;83;21911;-70
2021/03/29 04:11:23;;;;;;;32.87;14.93;;;;;;;7.42;59.21;101440.28;1718128;82;27380;-71
2021/03/29 04:13:46;;;;;;;;;;;;;;;7.48;59.10;101445.12;1722633;82;21207;-71
2021/03/29 04:16:12;;;;;;;31.42;14.05;;;;;;;7.54;58.96;101446.02;1713532;82;20177;-70
2021/03/29 04:18:38;;;;;;;30.00;14.63;;;;;;;7.58;58.88;101436.61;1706329;83;26820;-70
2021/03/29 04:21:05;;;;;;;33.92;14.40;;;;;;;7.68;58.70;101440.30;1701362;83;22229;-71
2021/03/29 04:23:31;;;;;;;28.52;14.38;;;;;;;7.73;58.61;101436.87;1699558;83;21220;-72
2021/03/29 04:25:57;;;;;;;32.38;14.90;;;;;;;7.66;58.72;101439.55;1707763;83;21606;-71
2021/03/29 04:28:27;;;;;;;29.18;14.55;;;;;;;7.76;58.76;101439.30;1700075;83;28393;-71
2021/03/29 04:30:53;;;;;;;32.67;14.70;;;;;;;7.76;58.75;101441.92;1707883;83;21224;-71
2021/03/29 04:33:19;;;;;;;34.85;15.78;;;;;;;7.75;58.64;101446.80;1701853;83;21899;-71
2021/03/29 04:35:45;;;;;;;35.28;16.17;;;;;;;7.79;59.00;101444.34;1698653;83;21198;-70
2021/03/29 04:38:11;;;;;;;33.63;14.73;;;;;;;7.90;58.91;101447.54;1698694;83;21228;-70
2021/03/29 04:40:37;;;;;;;33.28;15.15;;;;;;;7.90;59.00;101440.48;1705813;83;28383;-70
2021/03/29 04:43:03;;;;;;;30.88;14.93;;;;;;;7.89;59.10;101440.13;1703703;82;26744;-70
2021/03/29 04:45:29;;;;;;;34.08;14.85;;;;;;;7.86;59.36;101448.23;1724496;81;21893;-70
2021/03/29 04:47:55;;;;;;;31.55;14.93;;;;;;;7.90;59.36;101454.95;1717270;82;27410;-70
2021/03/29 04:50:22;;;;;;;32.23;14.78;;;;;;;7.96;59.35;101458.12;1717854;82;21619;-71
2021/03/29 04:52:48;;;;;;;30.65;14.20;;;;;;;7.85;59.59;101455.75;1714484;82;21204;-71
2021/03/29 04:55:15;;;;;;;37.50;15.58;;;;;;;7.93;59.59;101458.33;1727795;82;21713;-72
2021/03/29 04:57:41;;;;;;;34.60;15.75;;;;;;;7.97;59.60;101465.91;1714851;82;21695;-72
2021/03/29 05:00:09;;;;;;;34.78;15.95;;;;;;;7.98;59.67;101458.84;1720185;82;27024;-71
2021/03/29 05:02:35;;;;;;;32.95;15.03;;;;;;;7.94;59.86;101458.68;1715209;82;21117;-72
2021/03/29 05:05:00;;;;;;;34.78;14.98;;;;;;;7.88;60.22;101461.28;1721138;82;28340;-71
2021/03/29 05:07:26;;;;;;;33.58;15.28;;;;;;;7.77;60.67;101467.28;1717137;82;27121;-71
2021/03/29 05:09:52;;;;;;;29.10;14.28;;;;;;;7.88;60.45;101455.54;1728219;82;21970;-71
2021/03/29 05:12:22;;;;;;;34.03;15.32;;;;;;;7.90;60.59;101458.89;1715544;82;21156;-71
2021/03/29 05:14:45;;;;;;;;;;;;;;;7.87;60.89;101449.90;1718868;82;21082;-70
2021/03/29 05:17:11;;;;;;;31.30;14.23;;;;;;;7.94;60.91;101446.84;1718552;81;20215;-70
2021/03/29 05:19:37;;;;;;;32.95;15.28;;;;;;;7.82;61.26;101424.41;1718281;82;26796;-71
2021/03/29 05:22:04;;;;;;;31.65;14.58;;;;;;;7.77;61.88;101434.86;1717293;82;21877;-72
2021/03/29 05:24:30;;;;;;;28.55;14.10;;;;;;;7.77;62.13;101433.55;1720096;82;21264;-71
2021/03/29 05:26:56;;;;;;;31.07;14.28;;;;;;;7.76;62.59;101432.72;1715667;82;21156;-72
2021/03/29 05:29:28;;;;;;;33.40;14.33;;;;;;;7.79;62.93;101429.87;1713653;82;28380;-73
2021/03/29 05:31:57;;;;;;;36.00;14.60;;;;;;;7.89;62.71;101423.49;1718332;82;21201;-73
2021/03/29 05:34:24;;;;;;;32.08;14.00;;;;;;;8.00;62.68;101431.95;1714248;82;21308;-71
2021/03/29 05:36:51;;;;;;;31.47;15.00;;;;;;;7.79;63.52;101429.87;1719837;82;21474;-72
2021/03/29 05:39:16;;;;;;;30.00;14.55;;;;;;;7.83;63.22;101417.34;1718897;82;21214;-71
2021/03/29 05:41:43;;;;;;;32.13;14.55;;;;;;;7.92;63.35;101424.59;1729480;82;28662;-72
2021/03/29 05:46:39;;;;;;;30.77;13.78;;;;;;;7.95;63.96;101428.81;1829575;77;28542;-70
2021/03/29 05:49:06;;;;;;;33.23;13.55;;;;;;;7.96;64.03;101431.81;1789613;78;21171;-70
2021/03/29 05:51:37;;;;;;;30.12;14.25;;;;;;;7.98;63.95;101429.91;1786232;78;21208;-71
2021/03/29 05:54:04;;;;;;;29.07;14.25;;;;;;;8.07;63.65;101430.58;1760077;78;21170;-69
2021/03/29 05:56:31;;;;;;;31.00;13.53;;;;;;;8.23;63.64;101431.19;1793697;78;21199;-71
2021/03/29 05:59:07;;;;;;;32.73;14.50;;;;;;;8.45;63.92;101433.59;1789214;78;21073;-71
2021/03/29 06:01:39;;;;;;;28.75;13.22;;;;;;;8.27;62.81;101428.68;1790784;78;21247;-71
2021/03/29 06:04:05;;;;;;;31.15;13.55;;;;;;;8.43;63.11;101438.11;1790490;78;21230;-71
2021/03/29 06:06:31;;;;;;;35.45;14.70;;;;;;;8.36;62.66;101446.08;1788120;78;21267;-71
2021/03/29 06:08:56;;;;;;;32.55;14.47;;;;;;;8.43;62.53;101442.06;1789909;78;25283;-70
2021/03/29 06:11:28;;;;;;;31.62;14.23;;;;;;;8.44;62.50;101450.37;1786327;78;28495;-70
2021/03/29 06:14:21;;;;;;;29.75;14.50;;;;;;;8.32;62.59;101444.63;1788793;78;21193;-72
2021/03/29 06:17:09;;;;;;;31.12;14.40;;;;;;;8.35;62.75;101439.15;1787588;78;21193;-73
2021/03/29 06:19:49;;;;;;;28.35;13.20;;;;;;;8.40;62.72;101440.97;1790879;78;21236;-73
2021/03/29 06:22:31;;;;;;;29.35;13.50;;;;;;;8.42;62.76;101443.00;1791526;78;21190;-71
2021/03/29 06:25:14;;;;;;;31.87;14.30;;;;;;;8.52;62.65;101445.38;1788830;78;21584;-71
2021/03/29 06:27:48;;;;;;;32.38;14.68;;;;;;;8.53;63.03;101448.39;1789760;78;21152;-71
2021/03/29 06:30:29;;;;;;;29.57;13.53;;;;;;;8.53;63.62;101440.48;1786269;78;21256;-71
2021/03/29 06:33:14;;;;;;;28.38;13.90;;;;;;;8.63;63.59;101446.75;1792060;78;21227;-72
2021/03/29 06:35:53;;;;;;;29.30;13.35;;;;;;;8.69;63.75;101442.02;1785428;79;21675;-70
2021/03/29 06:38:36;;;;;;;27.82;12.75;;;;;;;8.75;64.20;101450.30;1793043;78;21172;-73
2021/03/29 06:41:01;;;;;;;26.42;13.25;;;;;;;8.62;64.93;101455.62;1786420;78;21181;-73
2021/03/29 06:43:31;;;;;;;29.05;12.73;;;;;;;8.77;64.83;101456.77;1789346;78;21213;-71
2021/03/29 06:46:00;;;;;;;25.80;12.80;;;;;;;8.83;65.10;101456.32;1787323;78;21543;-72
2021/03/29 06:48:36;;;;;;;26.02;12.30;;;;;;;8.92;64.92;101456.13;1777739;79;21495;-73
2021/03/29 06:51:32;;;;;;;29.55;12.85;;;;;;;8.81;65.76;101464.82;1777319;78;21230;-72
2021/03/29 06:54:10;;;;;;;30.92;12.53;;;;;;;9.02;65.62;101454.97;1775411;79;21216;-71
2021/03/29 06:56:47;;;;;;;30.60;12.40;;;;;;;9.16;65.52;101463.99;1774140;79;21196;-70
2021/03/29 06:59:23;;;;;;;32.80;13.53;;;;;;;9.28;65.36;101465.72;1771934;79;21244;-71
2021/03/29 07:01:54;;;;;;;19.10;9.35;;;;;;;9.41;65.19;101475.34;1771261;79;21212;-71
2021/03/29 07:04:23;;;;;;;27.32;12.07;;;;;;;9.51;64.96;101471.89;1768846;79;21232;-70
2021/03/29 07:06:49;;;;;;;27.10;12.65;;;;;;;9.50;64.54;101477.28;1775034;79;21257;-71
2021/03/29 07:09:16;;;;;;;25.27;12.10;;;;;;;9.65;64.52;101473.48;1775098;79;21949;-71
2021/03/29 07:11:43;;;;;;;25.75;12.07;;;;;;;9.95;64.44;101469.91;1773954;79;25576;-71
2021/03/29 07:14:09;;;;;;;22.95;10.85;;;;;;;10.06;63.54;101473.86;1774965;79;21232;-71
2021/03/29 07:16:35;;;;;;;29.52;12.00;;;;;;;10.09;63.60;101479.39;1772714;79;21624;-71
2021/03/29 07:19:05;;;;;;;25.48;12.03;;;;;;;10.06;63.47;101476.02;1772471;79;21223;-71
2021/03/29 07:21:31;;;;;;;24.15;11.40;;;;;;;10.12;63.52;101475.19;1776123;79;21622;-72
2021/03/29 07:24:04;;;;;;;24.00;11.73;;;;;;;10.15;63.55;101474.95;1774609;79;21244;-71
2021/03/29 07:26:54;;;;;;;26.90;11.55;;;;;;;10.12;63.55;101477.83;1772603;79;21172;-71
2021/03/29 07:29:31;;;;;;;23.32;10.78;;;;;;;10.20;64.07;101474.09;1769366;79;21217;-70
2021/03/29 07:31:59;;;;;;;26.17;12.28;;;;;;;10.26;64.31;101472.30;1776853;78;21137;-69
2021/03/29 07:34:48;;;;;;;25.65;9.95;;;;;;;10.19;64.85;101472.41;1777758;78;21237;-71
2021/03/29 07:37:31;;;;;;;23.42;11.68;;;;;;;10.22;64.97;101473.03;1776540;79;21176;-72
2021/03/29 07:39:58;;;;;;;23.90;10.58;;;;;;;10.27;65.50;101468.70;1772571;78;21125;-71
2021/03/29 07:42:29;;;;;;;21.35;10.30;;;;;;;10.20;65.68;101468.82;1773681;78;21204;-72
2021/03/29 07:45:03;;;;;;;25.08;11.45;;;;;;;10.35;65.80;101467.64;1772060;79;21118;-72
2021/03/29 07:47:55;;;;;;;26.37;11.38;;;;;;;10.41;66.32;101468.47;1774272;79;21392;-69
2021/03/29 07:50:33;;;;;;;20.35;10.13;;;;;;;10.41;66.76;101471.11;1780033;78;21205;-71
2021/03/29 07:53:04;;;;;;;25.23;11.08;;;;;;;10.44;66.98;101471.81;1779712;79;21236;-73
2021/03/29 07:55:46;;;;;;;24.35;11.33;;;;;;;10.55;67.59;101469.14;1776209;79;21130;-71
2021/03/29 07:58:20;;;;;;;23.35;11.30;;;;;;;10.65;67.07;101463.98;1780992;79;21142;-72
2021/03/29 08:00:49;;;;;;;26.12;11.88;;;;;;;10.63;67.80;101470.71;1779060;79;21217;-73
2021/03/29 08:03:24;;;;;;;22.77;11.05;;;;;;;10.86;67.41;101479.88;1774162;79;21258;-73
2021/03/29 08:05:51;;;;;;;23.67;11.00;;;;;;;10.85;67.69;101486.14;1781287;79;21248;-71
2021/03/29 08:08:33;;;;;;;27.70;10.13;;;;;;;10.92;67.79;101478.05;1783502;79;21228;-71
2021/03/29 08:11:16;;;;;;;25.57;11.15;;;;;;;10.80;68.13;101481.70;1781892;79;21166;-72
2021/03/29 08:14:01;;;;;;;21.37;10.65;;;;;;;10.73;69.21;101478.23;1781622;79;21277;-72
2021/03/29 08:16:29;;;;;;;21.37;10.63;;;;;;;10.96;68.63;101478.17;1774013;79;21253;-69
2021/03/29 08:19:19;;;;;;;21.68;10.82;;;;;;;10.96;68.67;101472.88;1780652;79;21218;-70
2021/03/29 08:22:03;;;;;;;23.38;11.00;;;;;;;10.90;68.09;101483.47;1778409;79;21500;-70
2021/03/29 08:24:33;;;;;;;19.67;10.18;;;;;;;11.04;68.60;101473.08;1777233;79;21174;-71
2021/03/29 08:27:20;;;;;;;22.45;10.20;;;;;;;11.21;68.04;101472.18;1753841;79;21265;-70
2021/03/29 08:29:52;;;;;;;22.82;9.15;;;;;;;10.78;68.18;101470.79;1777270;79;23171;-71
2021/03/29 08:32:30;;;;;;;21.00;9.18;;;;;;;11.14;68.42;101464.76;1777898;79;21191;-72
2021/03/29 08:35:08;;;;;;;21.45;9.60;;;;;;;11.31;68.20;101463.81;1777075;79;21203;-71
2021/03/29 08:37:47;;;;;;;16.30;8.18;;;;;;;11.53;68.00;101460.69;1776598;79;21208;-71
2021/03/29 08:40:22;;;;;;;22.73;8.78;;;;;;;11.64;67.51;101461.95;1761970;78;21235;-70
2021/03/29 08:42:50;;;;;;;19.00;8.90;;;;;;;11.48;67.55;101465.04;1775232;78;21218;-71
2021/03/29 08:45:21;;;;;;;19.90;7.90;;;;;;;11.60;66.76;101468.47;1775823;78;21195;-71
2021/03/29 08:47:53;;;;;;;18.23;7.87;;;;;;;11.44;66.75;101464.47;1770819;78;21203;-71
2021/03/29 08:50:24;;;;;;;17.17;7.40;;;;;;;11.71;66.93;101464.41;1772062;79;21202;-70
2021/03/29 08:53:00;;;;;;;18.90;7.47;;;;;;;12.01;66.13;101456.18;1767333;80;21596;-70
2021/03/29 08:55:41;;;;;;;22.17;8.23;;;;;;;12.06;65.84;101456.61;1767076;80;21066;-73
2021/03/29 08:58:07;;;;;;;16.23;7.50;;;;;;;12.10;65.16;101450.05;1773810;80;21162;-72
2021/03/29 09:00:38;;;;;;;17.87;8.08;;;;;;;12.25;64.83;101453.67;1766153;80;21672;-72
2021/03/29 09:03:08;;;;;;;18.82;7.85;;;;;;;12.18;65.16;101450.24;1749209;80;21660;-73
2021/03/29 09:05:33;;;;;;;14.73;7.00;;;;;;;12.42;64.79;101451.69;1761869;80;21236;-71
2021/03/29 09:08:10;;;;;;;18.02;7.72;;;;;;;12.37;64.71;101426.11;1770106;80;20919;-72
2021/03/29 09:10:35;;;;;;;19.23;8.13;;;;;;;12.71;64.46;101451.74;1768749;79;21211;-71
2021/03/29 09:13:09;;;;;;;18.00;8.08;;;;;;;12.80;64.61;101454.03;1773245;80;20927;-71
2021/03/29 09:15:37;;;;;;;20.17;8.18;;;;;;;12.90;64.48;101456.21;1769371;80;21224;-71
2021/03/29 09:18:09;;;;;;;16.60;7.45;;;;;;;12.77;63.93;101453.02;1765824;80;21604;-72
2021/03/29 09:20:45;;;;;;;16.05;6.90;;;;;;;12.79;64.14;101460.83;1764719;80;21242;-72
2021/03/29 09:23:16;;;;;;;17.67;6.47;;;;;;;12.80;64.09;101453.20;1765498;80;21227;-71
2021/03/29 09:25:42;;;;;;;15.13;6.30;;;;;;;12.99;63.43;101453.69;1769609;80;21585;-72
2021/03/29 09:31:00;;;;;;;;;;;;;;;12.91;63.85;101457.90;1769530;80;21200;-71
2021/03/29 09:33:26;;;;;;;15.88;6.42;;;;;;;12.91;63.71;101456.57;1768133;80;20294;-71
2021/03/29 09:35:53;;;;;;;17.90;6.93;;;;;;;12.60;64.33;101466.92;1770354;80;20954;-70
2021/03/29 09:38:36;;;;;;;16.50;6.00;;;;;;;12.69;64.49;101463.45;1770885;80;21196;-71
2021/03/29 09:41:22;;;;;;;15.58;6.40;;;;;;;12.93;63.92;101465.22;1771508;78;21280;-70
2021/03/29 09:43:50;;;;;;;16.57;6.40;;;;;;;12.91;64.18;101468.50;1725019;80;21391;-70
2021/03/29 09:46:15;;;;;;;18.07;6.53;;;;;;;12.98;64.38;101474.58;1771496;79;21194;-72
2021/03/29 09:48:43;;;;;;;15.10;6.15;;;;;;;13.00;64.31;101468.63;1779322;78;20946;-69
2021/03/29 09:51:23;;;;;;;;;;;;;;;12.89;64.90;101485.02;1784124;78;21213;-70
2021/03/29 09:53:48;;;;;;;18.12;7.30;;;;;;;12.45;65.20;101484.54;1781516;78;20499;-70
2021/03/29 09:56:31;;;;;;;16.48;6.72;;;;;;;12.36;66.29;101472.10;1775247;79;21481;-72
2021/03/29 09:58:57;;;;;;;16.67;7.00;;;;;;;12.38;66.65;101474.13;1778934;79;21165;-71
2021/03/29 10:01:25;;;;;;;19.37;7.42;;;;;;;12.44;67.13;101470.92;1776100;79;21732;-71
2021/03/29 10:03:59;;;;;;;15.58;7.08;;;;;;;12.56;67.47;101469.84;1775970;79;21204;-70
2021/03/29 10:06:28;;;;;;;21.17;8.25;;;;;;;12.74;67.14;101470.02;1790394;78;21251;-70
2021/03/29 10:09:08;;;;;;;17.67;7.50;;;;;;;12.89;66.91;101458.50;1775307;79;21217;-70
2021/03/29 10:11:48;;;;;;;20.92;8.70;;;;;;;12.87;66.71;101461.80;1776553;79;21188;-70
2021/03/29 10:14:19;;;;;;;19.37;7.67;;;;;;;13.06;66.49;101466.75;1778914;79;21595;-70
2021/03/29 10:16:49;;;;;;;17.42;7.60;;;;;;;12.98;66.08;101471.92;1778446;79;21220;-71
2021/03/29 10:19:16;;;;;;;19.55;7.35;;;;;;;13.00;66.67;101471.28;1780694;78;21215;-71
2021/03/29 10:22:14;;;;;;;17.15;7.58;;;;;;;12.64;67.47;101463.03;1777228;78;21663;-70
2021/03/29 10:25:11;;;;;;;19.37;7.33;;;;;;;12.91;67.41;101467.64;1775759;79;28299;-71
2021/03/29 10:27:52;;;;;;;19.30;8.35;;;;;;;12.75;66.23;101466.88;1772791;79;21498;-70
2021/03/29 10:30:28;;;;;;;16.40;7.15;;;;;;;12.75;66.18;101463.75;1774963;78;21381;-70
2021/03/29 10:32:57;;;;;;;17.77;7.40;;;;;;;12.72;66.43;101463.17;1775634;78;21198;-70
2021/03/29 10:35:24;;;;;;;17.60;7.05;;;;;;;12.80;66.13;101461.98;1781830;78;22091;-71
2021/03/29 10:37:50;;;;;;;16.57;7.35;;;;;;;12.92;64.96;101459.55;1779925;78;21221;-71
2021/03/29 10:40:17;;;;;;;18.42;7.33;;;;;;;13.09;64.79;101458.02;1776859;78;20964;-71
2021/03/29 10:42:43;;;;;;;20.52;8.33;;;;;;;13.11;64.90;101452.11;1745136;80;21225;-69
2021/03/29 10:45:11;;;;;;;19.50;8.70;;;;;;;12.49;66.60;101455.48;1738716;80;21103;-70
2021/03/29 10:47:38;;;;;;;18.60;8.23;;;;;;;12.79;66.77;101456.35;1734162;80;21930;-71
2021/03/29 10:50:06;;;;;;;23.27;8.25;;;;;;;12.96;66.24;101453.50;1721273;81;21638;-71
2021/03/29 10:52:31;;;;;;;19.52;8.23;;;;;;;13.11;66.31;101457.88;1728809;81;21267;-70
2021/03/29 10:54:57;;;;;;;16.82;7.97;;;;;;;13.03;65.97;101452.45;1723778;82;21064;-71
2021/03/29 10:57:23;;;;;;;21.73;9.70;;;;;;;13.10;65.77;101452.25;1724857;82;21014;-70
2021/03/29 10:59:49;;;;;;;21.75;9.40;;;;;;;13.04;65.06;101460.76;1726144;82;21333;-70
2021/03/29 11:02:15;;;;;;;20.08;9.10;;;;;;;13.19;65.40;101447.42;1698091;82;20979;-69
2021/03/29 11:04:40;;;;;;;21.40;9.78;;;;;;;13.18;65.28;101459.00;1696022;82;21165;-70
2021/03/29 11:07:06;;;;;;;24.75;10.10;;;;;;;13.11;64.91;101457.88;1694143;82;21012;-70
2021/03/29 11:09:32;;;;;;;23.30;9.70;;;;;;;13.22;64.99;101454.23;1698751;82;21122;-70
2021/03/29 11:11:58;;;;;;;21.52;10.32;;;;;;;13.10;65.09;101453.07;1699707;82;21214;-71
2021/03/29 11:14:24;;;;;;;22.40;10.00;;;;;;;13.15;64.89;101451.32;1698394;82;21590;-71
2021/03/29 11:16:52;;;;;;;25.52;11.28;;;;;;;13.32;64.97;101456.91;1699200;82;21225;-69
2021/03/29 11:19:19;;;;;;;21.57;10.30;;;;;;;12.79;66.36;101459.50;1695666;82;21274;-70
2021/03/29 11:21:45;;;;;;;22.55;10.43;;;;;;;13.08;65.68;101452.85;1701209;82;21660;-70
2021/03/29 11:24:13;;;;;;;21.90;10.15;;;;;;;13.15;65.64;101455.30;1680975;82;21571;-69
2021/03/29 11:26:39;;;;;;;22.73;10.35;;;;;;;13.19;65.43;101448.75;1697957;83;21235;-69
2021/03/29 11:29:05;;;;;;;22.62;10.50;;;;;;;13.25;65.20;101449.51;1695436;82;21209;-69
2021/03/29 11:31:31;;;;;;;19.62;9.83;;;;;;;13.19;65.47;101447.42;1694318;82;20951;-71
2021/03/29 11:33:57;;;;;;;21.70;10.28;;;;;;;12.92;66.29;101441.48;1754150;79;21173;-70